createdAt,value
2022-08-22T00:00:37.863Z,99268.00
2022-08-22T00:02:43.289Z,99298.19
2022-08-22T00:02:47.157Z,99311.53
2022-08-22T00:02:54.175Z,99310.91
2022-08-22T00:03:01.687Z,99320.31
2022-08-22T00:03:01.815Z,99306.22
2022-08-22T00:03:06.868Z,99306.91
2022-08-22T00:06:11.952Z,99271.59
2022-08-22T00:09:13.416Z,99270.00
2022-08-22T00:12:21.296Z,99263.91
2022-08-22T00:15:16.793Z,99262.03
2022-08-22T00:18:34.435Z,99258.50
2022-08-22T00:21:19.966Z,99258.50
2022-08-22T00:24:08.736Z,99266.25
2022-08-22T00:27:10.409Z,99272.56
2022-08-22T00:29:46.117Z,99266.91
2022-08-22T00:32:20.817Z,99267.03
2022-08-22T00:35:00.378Z,99262.66
2022-08-22T00:38:09.042Z,99260.63
2022-08-22T00:41:07.491Z,99258.84
2022-08-22T00:44:04.754Z,99266.25
2022-08-22T00:47:05.806Z,99261.91
2022-08-22T00:49:58.750Z,99264.84
2022-08-22T00:52:47.816Z,99262.53
2022-08-22T00:55:47.504Z,99262.75
2022-08-22T00:58:52.864Z,99269.16
2022-08-22T01:01:33.026Z,99270.34
2022-08-22T01:04:51.832Z,99262.88
2022-08-22T01:08:15.304Z,99251.13
2022-08-22T01:11:20.040Z,99251.34
2022-08-22T01:14:20.742Z,99257.09
2022-08-22T01:17:26.322Z,99257.94
2022-08-22T01:20:31.042Z,99260.06
2022-08-22T01:23:11.106Z,99273.28
2022-08-22T01:26:08.666Z,99273.72
2022-08-22T01:29:15.276Z,99271.06
2022-08-22T01:32:20.144Z,99267.34
2022-08-22T01:35:24.654Z,99271.19
2022-08-22T01:38:18.375Z,99262.75
2022-08-22T01:41:07.135Z,99267.34
2022-08-22T01:44:00.414Z,99268.91
2022-08-22T01:46:35.794Z,99275.63
2022-08-22T01:49:15.270Z,99263.78
2022-08-22T01:52:54.274Z,99265.59
2022-08-22T01:55:33.193Z,99259.94
2022-08-22T01:58:13.636Z,99245.25
2022-08-22T02:01:28.317Z,99259.63
2022-08-22T02:04:34.706Z,99258.78
2022-08-22T02:07:18.951Z,99265.38
2022-08-22T02:10:15.172Z,99279.97
2022-08-22T02:13:15.953Z,99289.78
2022-08-22T02:19:48.430Z,99274.56
2022-08-22T02:22:44.308Z,99259.09
2022-08-22T02:25:52.848Z,99261.50
2022-08-22T02:28:56.413Z,99267.25
2022-08-22T02:31:49.625Z,99264.47
2022-08-22T02:34:57.389Z,99282.56
2022-08-22T02:37:49.194Z,99281.88
2022-08-22T02:40:33.567Z,99278.75
2022-08-22T02:43:20.872Z,99279.16
2022-08-22T02:46:07.530Z,99286.13
2022-08-22T02:48:49.659Z,99283.03
2022-08-22T02:51:36.464Z,99276.13
2022-08-22T02:54:37.235Z,99271.56
2022-08-22T02:57:14.172Z,99265.78
2022-08-22T03:00:31.077Z,99258.75
2022-08-22T03:03:14.925Z,99254.03
2022-08-22T03:05:45.040Z,99251.38
2022-08-22T03:08:29.309Z,99257.84
2022-08-22T03:11:19.196Z,99263.28
2022-08-22T03:14:12.130Z,99272.22
2022-08-22T03:16:43.873Z,99274.59
2022-08-22T03:19:56.466Z,99267.06
2022-08-22T03:22:49.323Z,99271.09
2022-08-22T03:25:55.008Z,99270.13
2022-08-22T03:28:38.900Z,99270.06
2022-08-22T03:31:31.270Z,99271.09
2022-08-22T03:34:16.671Z,99264.28
2022-08-22T03:37:06.584Z,99257.25
2022-08-22T03:40:08.595Z,99272.78
2022-08-22T03:43:34.624Z,99259.00
2022-08-22T03:46:22.967Z,99268.59
2022-08-22T03:49:45.059Z,99270.22
2022-08-22T03:53:18.686Z,99272.31
2022-08-22T03:56:25.260Z,99277.44
2022-08-22T03:59:10.709Z,99284.69
2022-08-22T04:01:38.144Z,99269.97
2022-08-22T04:04:20.491Z,99274.25
2022-08-22T04:07:05.882Z,99282.44
2022-08-22T04:10:01.875Z,99282.38
2022-08-22T04:12:59.770Z,99283.34
2022-08-22T04:15:36.787Z,99285.34
2022-08-22T04:18:22.328Z,99296.75
2022-08-22T04:21:02.856Z,99297.91
2022-08-22T04:23:48.996Z,99293.63
2022-08-22T04:26:21.688Z,99290.22
2022-08-22T04:28:58.876Z,99287.66
2022-08-22T04:31:32.613Z,99299.38
2022-08-22T04:34:25.348Z,99297.66
2022-08-22T04:37:30.702Z,99303.00
2022-08-22T04:40:20.323Z,99305.06
2022-08-22T04:43:09.326Z,99306.34
2022-08-22T04:46:08.499Z,99311.56
2022-08-22T04:48:53.532Z,99303.56
2022-08-22T04:51:46.909Z,99313.66
2022-08-22T04:54:54.350Z,99312.56
2022-08-22T04:57:59.959Z,99311.63
2022-08-22T05:00:50.057Z,99312.38
2022-08-22T05:03:30.057Z,99321.41
2022-08-22T05:06:01.937Z,99318.16
2022-08-22T05:08:33.572Z,99319.69
2022-08-22T05:11:12.153Z,99327.47
2022-08-22T05:14:15.510Z,99315.44
2022-08-22T05:16:49.901Z,99330.34
2022-08-22T05:19:40.053Z,99326.69
2022-08-22T05:22:29.184Z,99328.00
2022-08-22T05:25:10.005Z,99327.81
2022-08-22T05:27:48.652Z,99329.53
2022-08-22T05:30:28.520Z,99329.53
2022-08-22T05:33:21.261Z,99325.03
2022-08-22T05:35:57.887Z,99325.88
2022-08-22T05:38:59.321Z,99326.09
2022-08-22T05:41:33.124Z,99329.41
2022-08-22T05:44:00.270Z,99338.06
2022-08-22T05:46:41.939Z,99336.34
2022-08-22T05:49:47.270Z,99338.91
2022-08-22T05:52:41.294Z,99345.09
2022-08-22T05:55:53.267Z,99345.09
2022-08-22T05:58:43.983Z,99340.53
2022-08-22T06:01:32.463Z,99339.66
2022-08-22T06:04:21.455Z,99343.41
2022-08-22T06:07:23.112Z,99341.47
2022-08-22T06:10:18.060Z,99346.69
2022-08-22T06:13:01.700Z,99340.09
2022-08-22T06:15:35.322Z,99344.56
2022-08-22T06:18:15.376Z,99350.56
2022-08-22T06:20:52.888Z,99343.41
2022-08-22T06:23:30.339Z,99354.19
2022-08-22T06:26:00.985Z,99361.78
2022-08-22T06:28:54.607Z,99351.31
2022-08-22T06:31:32.669Z,99353.88
2022-08-22T06:34:09.847Z,99352.63
2022-08-22T06:36:40.446Z,99349.41
2022-08-22T06:39:23.182Z,99355.06
2022-08-22T06:42:13.242Z,99365.00
2022-08-22T06:44:56.286Z,99364.38
2022-08-22T06:47:36.449Z,99368.53
2022-08-22T06:50:13.652Z,99359.16
2022-08-22T06:53:14.353Z,99367.81
2022-08-22T06:55:48.793Z,99371.31
2022-08-22T06:58:22.261Z,99363.53
2022-08-22T07:01:11.869Z,99365.69
2022-08-22T07:03:50.284Z,99363.22
2022-08-22T07:06:47.853Z,99368.47
2022-08-22T07:09:37.851Z,99370.25
2022-08-22T07:12:31.776Z,99371.41
2022-08-22T07:15:12.341Z,99375.38
2022-08-22T07:18:08.096Z,99380.69
2022-08-22T07:20:39.184Z,99375.38
2022-08-22T07:23:34.643Z,99375.97
2022-08-22T07:26:17.062Z,99378.31
2022-08-22T07:29:12.031Z,99380.56
2022-08-22T07:31:51.761Z,99389.84
2022-08-22T07:35:13.279Z,99386.00
2022-08-22T07:38:14.540Z,99387.25
2022-08-22T07:41:20.274Z,99388.13
2022-08-22T07:44:07.128Z,99391.53
2022-08-22T07:47:08.331Z,99388.03
2022-08-22T07:50:03.186Z,99387.06
2022-08-22T07:52:41.710Z,99391.22
2022-08-22T07:55:26.740Z,99382.81
2022-08-22T07:57:58.481Z,99396.25
2022-08-22T08:00:30.221Z,99400.41
2022-08-22T08:03:30.561Z,99392.63
2022-08-22T08:06:01.534Z,99387.06
2022-08-22T08:08:38.955Z,99387.72
2022-08-22T08:11:10.371Z,99389.00
2022-08-22T08:13:45.497Z,99393.81
2022-08-22T08:16:32.221Z,99385.91
2022-08-22T08:19:02.240Z,99383.44
2022-08-22T08:21:43.225Z,99382.63
2022-08-22T08:24:16.295Z,99383.88
2022-08-22T08:27:10.662Z,99384.84
2022-08-22T08:29:42.969Z,99382.63
2022-08-22T08:32:16.820Z,99376.72
2022-08-22T08:35:04.001Z,99390.06
2022-08-22T08:38:01.917Z,99387.97
2022-08-22T08:40:32.112Z,99388.91
2022-08-22T08:43:35.074Z,99393.09
2022-08-22T08:46:32.721Z,99382.84
2022-08-22T08:49:52.771Z,99392.66
2022-08-22T08:53:01.591Z,99381.97
2022-08-22T08:55:51.399Z,99372.81
2022-08-22T08:58:37.902Z,99373.44
2022-08-22T09:01:19.929Z,99368.97
2022-08-22T09:04:15.160Z,99375.78
2022-08-22T09:07:19.698Z,99367.06
2022-08-22T09:10:03.266Z,99371.53
2022-08-22T09:12:52.369Z,99375.59
2022-08-22T09:15:37.351Z,99367.13
2022-08-22T09:18:31.534Z,99370.03
2022-08-22T09:21:02.889Z,99369.81
2022-08-22T09:24:06.450Z,99373.44
2022-08-22T09:26:48.678Z,99379.41
2022-08-22T09:29:59.631Z,99375.38
2022-08-22T09:32:57.831Z,99374.31
2022-08-22T09:36:01.119Z,99377.91
2022-08-22T09:38:52.652Z,99364.25
2022-08-22T09:41:53.652Z,99372.38
2022-08-22T09:44:39.743Z,99372.56
2022-08-22T09:47:32.636Z,99374.72
2022-08-22T09:50:38.353Z,99374.19
2022-08-22T09:53:49.888Z,99372.38
2022-08-22T09:56:39.171Z,99371.50
2022-08-22T09:59:21.269Z,99376.66
2022-08-22T10:01:59.736Z,99373.03
2022-08-22T10:04:59.235Z,99372.81
2022-08-22T10:07:49.243Z,99367.91
2022-08-22T10:10:46.653Z,99367.69
2022-08-22T10:13:41.191Z,99365.97
2022-08-22T10:16:27.326Z,99365.97
2022-08-22T10:19:23.210Z,99363.84
2022-08-22T10:22:30.363Z,99360.97
2022-08-22T10:25:19.584Z,99362.22
2022-08-22T10:28:13.355Z,99361.69
2022-08-22T10:31:18.198Z,99374.72
2022-08-22T10:34:09.342Z,99371.22
2022-08-22T10:36:48.583Z,99370.25
2022-08-22T10:39:44.195Z,99369.19
2022-08-22T10:42:38.235Z,99382.59
2022-08-22T10:45:23.905Z,99379.09
2022-08-22T10:48:10.438Z,99381.88
2022-08-22T10:50:53.500Z,99386.91
2022-08-22T10:54:03.073Z,99376.66
2022-08-22T10:56:55.906Z,99385.28
2022-08-22T10:59:48.594Z,99374.50
2022-08-22T11:02:29.575Z,99365.31
2022-08-22T11:05:30.761Z,99361.50
2022-08-22T11:08:17.036Z,99371.09
2022-08-22T11:11:32.826Z,99369.06
2022-08-22T11:14:28.980Z,99370.88
2022-08-22T11:17:31.191Z,99363.41
2022-08-22T11:20:19.708Z,99362.75
2022-08-22T11:22:55.785Z,99366.41
2022-08-22T11:25:42.049Z,99367.47
2022-08-22T11:28:25.750Z,99374.94
2022-08-22T11:31:26.243Z,99386.59
2022-08-22T11:34:09.391Z,99379.88
2022-08-22T11:37:11.695Z,99384.56
2022-08-22T11:40:04.484Z,99389.03
2022-08-22T11:42:47.351Z,99387.00
2022-08-22T11:45:31.740Z,99393.09
2022-08-22T11:48:09.338Z,99397.16
2022-08-22T11:51:13.552Z,99388.38
2022-08-22T11:54:06.885Z,99393.94
2022-08-22T11:56:52.900Z,99389.22
2022-08-22T11:59:50.611Z,99387.97
2022-08-22T12:02:47.444Z,99389.78
2022-08-22T12:05:27.273Z,99390.09
2022-08-22T12:08:37.903Z,99392.13
2022-08-22T12:11:24.485Z,99385.50
2022-08-22T12:14:05.948Z,99386.66
2022-08-22T12:16:52.040Z,99388.19
2022-08-22T12:20:14.628Z,99386.88
2022-08-22T12:23:16.562Z,99389.22
2022-08-22T12:26:10.887Z,99390.50
2022-08-22T12:28:59.874Z,99382.81
2022-08-22T12:31:58.700Z,99381.75
2022-08-22T12:35:13.712Z,99379.72
2022-08-22T12:38:11.603Z,99369.34
2022-08-22T12:41:27.978Z,99364.97
2022-08-22T12:44:17.100Z,99358.66
2022-08-22T12:47:35.868Z,99365.41
2022-08-22T12:50:38.942Z,99363.56
2022-08-22T12:53:24.587Z,99360.59
2022-08-22T12:56:40.256Z,99356.66
2022-08-22T12:59:41.929Z,99360.78
2022-08-22T13:02:45.182Z,99360.78
2022-08-22T13:05:22.864Z,99360.16
2022-08-22T13:08:04.575Z,99350.97
2022-08-22T13:11:22.653Z,99359.06
2022-08-22T13:13:57.708Z,99362.19
2022-08-22T13:16:49.018Z,99353.75
2022-08-22T13:19:49.930Z,99357.84
2022-08-22T13:22:26.221Z,99360.38
2022-08-22T13:25:35.320Z,99354.19
2022-08-22T13:28:09.950Z,99358.56
2022-08-22T13:30:41.819Z,99366.22
2022-08-22T13:33:26.327Z,99366.34
2022-08-22T13:36:08.148Z,99364.66
2022-08-22T13:39:04.493Z,99358.00
2022-08-22T13:41:44.407Z,99364.19
2022-08-22T13:44:19.266Z,99366.88
2022-08-22T13:47:13.265Z,99365.50
2022-08-22T13:49:44.276Z,99369.75
2022-08-22T13:52:38.053Z,99370.31
2022-08-22T13:55:29.612Z,99370.94
2022-08-22T13:58:12.971Z,99378.31
2022-08-22T14:01:04.310Z,99373.13
2022-08-22T14:03:58.583Z,99372.81
2022-08-22T14:06:55.776Z,99368.31
2022-08-22T14:09:35.597Z,99369.19
2022-08-22T14:12:23.988Z,99368.00
2022-08-22T14:15:08.688Z,99367.47
2022-08-22T14:17:44.401Z,99367.25
2022-08-22T14:20:32.177Z,99360.81
2022-08-22T14:23:34.467Z,99361.03
2022-08-22T14:26:06.813Z,99355.34
2022-08-22T14:28:47.202Z,99351.63
2022-08-22T14:31:25.085Z,99352.47
2022-08-22T14:34:14.217Z,99352.75
2022-08-22T14:37:04.240Z,99352.75
2022-08-22T14:39:50.077Z,99355.94
2022-08-22T14:42:33.602Z,99355.84
2022-08-22T14:45:30.691Z,99348.88
2022-08-22T14:48:30.914Z,99350.81
2022-08-22T14:51:08.472Z,99350.50
2022-08-22T14:53:40.442Z,99353.53
2022-08-22T14:56:18.297Z,99344.56
2022-08-22T14:58:54.159Z,99346.03
2022-08-22T15:01:32.799Z,99341.66
2022-08-22T15:04:11.297Z,99340.91
2022-08-22T15:06:53.247Z,99345.69
2022-08-22T15:10:01.143Z,99340.09
2022-08-22T15:13:02.798Z,99345.84
2022-08-22T15:15:53.300Z,99348.41
2022-08-22T15:18:32.501Z,99346.34
2022-08-22T15:21:11.540Z,99352.09
2022-08-22T15:23:47.036Z,99359.47
2022-08-22T15:26:30.768Z,99353.41
2022-08-22T15:29:15.776Z,99357.66
2022-08-22T15:31:46.865Z,99360.84
2022-08-22T15:34:32.711Z,99363.03
2022-08-22T15:37:26.936Z,99353.78
2022-08-22T15:40:12.016Z,99358.06
2022-08-22T15:42:47.723Z,99352.25
2022-08-22T15:45:37.553Z,99349.69
2022-08-22T15:48:26.167Z,99357.81
2022-08-22T15:51:01.396Z,99352.34
2022-08-22T15:54:03.856Z,99348.94
2022-08-22T15:57:10.520Z,99339.09
2022-08-22T15:59:54.439Z,99342.75
2022-08-22T16:02:56.199Z,99350.53
2022-08-22T16:05:48.354Z,99350.31
2022-08-22T16:08:47.326Z,99351.31
2022-08-22T16:11:33.823Z,99355.88
2022-08-22T16:14:36.103Z,99351.38
2022-08-22T16:17:31.214Z,99351.00
2022-08-22T16:20:15.877Z,99348.81
2022-08-22T16:22:59.575Z,99354.41
2022-08-22T16:26:03.890Z,99340.06
2022-08-22T16:28:58.615Z,99350.72
2022-08-22T16:31:44.439Z,99346.00
2022-08-22T16:34:18.689Z,99339.78
2022-08-22T16:36:48.722Z,99347.69
2022-08-22T16:39:24.751Z,99350.84
2022-08-22T16:42:23.628Z,99345.41
2022-08-22T16:45:19.113Z,99356.19
2022-08-22T16:47:58.403Z,99353.75
2022-08-22T16:50:44.676Z,99357.91
2022-08-22T16:53:31.673Z,99359.84
2022-08-22T16:56:22.960Z,99359.84
2022-08-22T16:59:23.890Z,99363.25
2022-08-22T17:02:38.949Z,99366.53
2022-08-22T17:05:29.484Z,99361.78
2022-08-22T17:08:25.898Z,99365.66
2022-08-22T17:10:59.393Z,99365.06
2022-08-22T17:13:41.424Z,99365.66
2022-08-22T17:16:24.213Z,99377.97
2022-08-22T17:19:28.377Z,99384.91
2022-08-22T17:22:00.730Z,99379.31
2022-08-22T17:25:03.165Z,99374.66
2022-08-22T17:27:40.247Z,99375.91
2022-08-22T17:30:15.009Z,99367.63
2022-08-22T17:33:01.601Z,99367.13
2022-08-22T17:36:21.078Z,99362.75
2022-08-22T17:39:45.782Z,99365.66
2022-08-22T17:42:51.492Z,99365.44
2022-08-22T17:45:30.928Z,99376.13
2022-08-22T17:48:38.753Z,99375.28
2022-08-22T17:51:29.061Z,99376.38
2022-08-22T17:54:13.691Z,99381.72
2022-08-22T17:57:25.632Z,99379.16
2022-08-22T18:00:13.962Z,99371.28
2022-08-22T18:03:00.698Z,99371.19
2022-08-22T18:05:34.624Z,99371.91
2022-08-22T18:08:38.095Z,99370.03
2022-08-22T18:11:40.190Z,99380.44
2022-08-22T18:14:20.011Z,99389.69
2022-08-22T18:16:51.059Z,99384.34
2022-08-22T18:19:25.051Z,99371.84
2022-08-22T18:22:00.238Z,99369.25
2022-08-22T18:25:05.052Z,99371.00
2022-08-22T18:27:56.427Z,99379.16
2022-08-22T18:30:54.329Z,99381.34
2022-08-22T18:33:49.912Z,99383.91
2022-08-22T18:36:28.868Z,99384.94
2022-08-22T18:39:14.717Z,99383.09
2022-08-22T18:41:45.671Z,99384.09
2022-08-22T18:44:22.000Z,99380.25
2022-08-22T18:46:53.209Z,99388.06
2022-08-22T18:49:20.706Z,99391.84
2022-08-22T18:52:15.635Z,99397.94
2022-08-22T18:55:16.326Z,99397.47
2022-08-22T18:57:47.929Z,99396.78
2022-08-22T19:00:24.951Z,99394.97
2022-08-22T19:03:29.312Z,99403.84
2022-08-22T19:06:50.244Z,99392.28
2022-08-22T19:09:49.997Z,99408.16
2022-08-22T19:12:31.896Z,99400.72
2022-08-22T19:15:47.793Z,99394.25
2022-08-22T19:18:52.675Z,99391.47
2022-08-22T19:21:45.789Z,99391.84
2022-08-22T19:24:20.452Z,99394.03
2022-08-22T19:27:07.757Z,99394.44
2022-08-22T19:29:36.657Z,99390.28
2022-08-22T19:32:13.114Z,99395.50
2022-08-22T19:35:27.355Z,99402.56
2022-08-22T19:38:33.304Z,99404.28
2022-08-22T19:41:41.797Z,99403.25
2022-08-22T19:44:58.137Z,99396.84
2022-08-22T19:48:17.558Z,99397.56
2022-08-22T19:51:24.579Z,99397.94
2022-08-22T19:54:23.878Z,99394.03
2022-08-22T19:57:03.945Z,99394.03
2022-08-22T20:00:09.739Z,99390.16
2022-08-22T20:02:40.830Z,99389.94
2022-08-22T20:05:58.098Z,99391.63
2022-08-22T20:09:13.384Z,99385.22
2022-08-22T20:12:15.849Z,99383.56
2022-08-22T20:14:47.539Z,99373.88
2022-08-22T20:17:40.861Z,99378.13
2022-08-22T20:20:38.724Z,99362.44
2022-08-22T20:23:23.215Z,99357.81
2022-08-22T20:25:56.570Z,99342.00
2022-08-22T20:28:32.435Z,99350.78
2022-08-22T20:31:06.281Z,99357.81
2022-08-22T20:33:59.236Z,99355.59
2022-08-22T20:36:33.384Z,99354.88
2022-08-22T20:39:22.400Z,99365.63
2022-08-22T20:42:00.391Z,99363.56
2022-08-22T20:44:53.221Z,99358.97
2022-08-22T20:47:40.851Z,99353.88
2022-08-22T20:50:12.265Z,99353.03
2022-08-22T20:52:51.907Z,99337.81
2022-08-22T20:55:31.677Z,99340.63
2022-08-22T20:58:37.558Z,99342.59
2022-08-22T21:01:06.654Z,99343.81
2022-08-22T21:03:46.176Z,99344.91
2022-08-22T21:06:58.861Z,99339.94
2022-08-22T21:10:01.637Z,99339.81
2022-08-22T21:12:29.861Z,99333.59
2022-08-22T21:15:02.982Z,99329.00
2022-08-22T21:17:34.531Z,99331.91
2022-08-22T21:20:23.131Z,99320.97
2022-08-22T21:22:53.292Z,99320.22
2022-08-22T21:25:31.415Z,99312.94
2022-08-22T21:28:05.383Z,99311.97
2022-08-22T21:34:19.612Z,99308.81
2022-08-22T21:36:54.095Z,99305.00
2022-08-22T21:39:27.841Z,99305.13
2022-08-22T21:42:07.157Z,99311.97
2022-08-22T21:44:59.845Z,99321.59
2022-08-22T21:47:49.733Z,99309.66
2022-08-22T21:50:38.539Z,99293.59
2022-08-22T21:53:12.160Z,99289.81
2022-08-22T21:55:45.012Z,99297.75
2022-08-22T21:58:35.540Z,99284.81
2022-08-22T22:01:27.188Z,99285.66
2022-08-22T22:04:16.218Z,99277.16
2022-08-22T22:06:44.473Z,99270.47
2022-08-22T22:09:20.461Z,99270.47
2022-08-22T22:11:57.480Z,99280.56
2022-08-22T22:14:24.610Z,99298.31
2022-08-22T22:16:55.969Z,99303.94
2022-08-22T22:19:23.019Z,99304.66
2022-08-22T22:21:50.626Z,99297.84
2022-08-22T22:24:19.865Z,99291.03
2022-08-22T22:26:53.898Z,99300.66
2022-08-22T22:29:29.462Z,99298.06
2022-08-22T22:32:08.653Z,99291.75
2022-08-22T22:34:37.256Z,99280.78
2022-08-22T22:37:12.244Z,99282.16
2022-08-22T22:39:42.517Z,99272.53
2022-08-22T22:42:10.296Z,99270.81
2022-08-22T22:44:47.424Z,99266.91
2022-08-22T22:47:16.762Z,99260.81
2022-08-22T22:49:47.812Z,99265.56
2022-08-22T22:52:22.226Z,99258.16
2022-08-22T22:54:57.071Z,99260.34
2022-08-22T22:57:29.293Z,99258.63
2022-08-22T22:59:57.343Z,99265.56
2022-08-22T23:02:34.868Z,99267.53
2022-08-22T23:05:02.186Z,99264.94
2022-08-22T23:07:33.869Z,99254.25
2022-08-22T23:10:05.202Z,99253.53
2022-08-22T23:12:35.662Z,99258.03
2022-08-22T23:15:03.953Z,99254.63
2022-08-22T23:17:31.190Z,99259.97
2022-08-22T23:19:58.418Z,99251.25
2022-08-22T23:22:25.787Z,99259.13
2022-08-22T23:24:53.085Z,99258.63
2022-08-22T23:27:20.539Z,99251.19
2022-08-22T23:29:47.842Z,99254.00
2022-08-22T23:32:15.220Z,99250.09
2022-08-22T23:34:48.592Z,99254.38
2022-08-22T23:37:19.627Z,99255.84
2022-08-22T23:40:01.242Z,99251.19
2022-08-22T23:42:59.641Z,99251.81
2022-08-22T23:45:28.816Z,99259.88
2022-08-22T23:47:57.057Z,99259.38
2022-08-22T23:50:25.049Z,99285.53
2022-08-22T23:52:54.242Z,99280.56
2022-08-22T23:55:21.335Z,99280.56
2022-08-22T23:57:48.606Z,99283.22
